sensor_id;sensor_type;location;lat;lon;timestamp;P1;durP1;ratioP1;P2;durP2;ratioP2
80115;SDS011;69423;47.608;19.366;2023-07-02T00:00:30;15.67;;;15.67;;
80115;SDS011;69423;47.608;19.366;2023-07-02T00:01:01;15.97;;;15.97;;
80115;SDS011;69423;47.608;19.366;2023-07-02T00:01:32;15.00;;;15.00;;
80115;SDS011;69423;47.608;19.366;2023-07-02T00:02:03;14.87;;;14.87;;
80115;SDS011;69423;47.608;19.366;2023-07-02T00:02:38;15.83;;;15.83;;
80115;SDS011;69423;47.608;19.366;2023-07-02T00:03:09;15.40;;;15.40;;
80115;SDS011;69423;47.608;19.366;2023-07-02T00:03:40;15.33;;;15.33;;
80115;SDS011;69423;47.608;19.366;2023-07-02T00:04:12;15.13;;;15.13;;
80115;SDS011;69423;47.608;19.366;2023-07-02T00:04:46;15.27;;;15.27;;
80115;SDS011;69423;47.608;19.366;2023-07-02T00:05:17;16.00;;;16.00;;
80115;SDS011;69423;47.608;19.366;2023-07-02T00:05:48;15.40;;;15.40;;
80115;SDS011;69423;47.608;19.366;2023-07-02T00:06:21;15.73;;;15.73;;
80115;SDS011;69423;47.608;19.366;2023-07-02T00:06:52;15.27;;;15.27;;
80115;SDS011;69423;47.608;19.366;2023-07-02T00:07:23;15.63;;;15.63;;
80115;SDS011;69423;47.608;19.366;2023-07-02T00:07:56;14.97;;;14.97;;
80115;SDS011;69423;47.608;19.366;2023-07-02T00:08:27;15.17;;;15.17;;
80115;SDS011;69423;47.608;19.366;2023-07-02T00:08:58;15.07;;;15.07;;
80115;SDS011;69423;47.608;19.366;2023-07-02T00:09:29;15.40;;;15.40;;
80115;SDS011;69423;47.608;19.366;2023-07-02T00:10:00;15.93;;;15.93;;
80115;SDS011;69423;47.608;19.366;2023-07-02T00:10:31;15.13;;;15.13;;
80115;SDS011;69423;47.608;19.366;2023-07-02T00:11:02;14.93;;;14.93;;
80115;SDS011;69423;47.608;19.366;2023-07-02T00:11:33;14.97;;;14.97;;
80115;SDS011;69423;47.608;19.366;2023-07-02T00:12:05;15.43;;;15.43;;
80115;SDS011;69423;47.608;19.366;2023-07-02T00:12:36;15.13;;;15.13;;
80115;SDS011;69423;47.608;19.366;2023-07-02T00:13:07;15.47;;;15.47;;
80115;SDS011;69423;47.608;19.366;2023-07-02T00:13:38;15.03;;;15.03;;
80115;SDS011;69423;47.608;19.366;2023-07-02T00:14:09;15.63;;;15.63;;
80115;SDS011;69423;47.608;19.366;2023-07-02T00:14:41;15.20;;;15.20;;
80115;SDS011;69423;47.608;19.366;2023-07-02T00:15:12;15.57;;;15.57;;
80115;SDS011;69423;47.608;19.366;2023-07-02T00:15:43;14.80;;;14.80;;
80115;SDS011;69423;47.608;19.366;2023-07-02T00:16:14;15.13;;;15.13;;
80115;SDS011;69423;47.608;19.366;2023-07-02T00:16:45;15.73;;;15.73;;
80115;SDS011;69423;47.608;19.366;2023-07-02T00:17:17;15.57;;;15.57;;
80115;SDS011;69423;47.608;19.366;2023-07-02T00:17:48;15.10;;;15.10;;
80115;SDS011;69423;47.608;19.366;2023-07-02T00:18:19;15.00;;;15.00;;
80115;SDS011;69423;47.608;19.366;2023-07-02T00:18:50;16.10;;;16.10;;
80115;SDS011;69423;47.608;19.366;2023-07-02T00:19:23;15.47;;;15.47;;
80115;SDS011;69423;47.608;19.366;2023-07-02T00:19:54;15.27;;;15.27;;
80115;SDS011;69423;47.608;19.366;2023-07-02T00:20:25;15.13;;;15.13;;
80115;SDS011;69423;47.608;19.366;2023-07-02T00:20:56;15.40;;;15.40;;
80115;SDS011;69423;47.608;19.366;2023-07-02T00:21:27;15.37;;;15.37;;
80115;SDS011;69423;47.608;19.366;2023-07-02T00:21:58;15.63;;;15.63;;
80115;SDS011;69423;47.608;19.366;2023-07-02T00:22:30;14.63;;;14.63;;
80115;SDS011;69423;47.608;19.366;2023-07-02T00:23:01;15.37;;;15.37;;
80115;SDS011;69423;47.608;19.366;2023-07-02T00:23:32;16.13;;;16.13;;
80115;SDS011;69423;47.608;19.366;2023-07-02T00:24:03;15.47;;;15.47;;
80115;SDS011;69423;47.608;19.366;2023-07-02T00:24:35;15.07;;;15.07;;
80115;SDS011;69423;47.608;19.366;2023-07-02T00:25:07;15.37;;;15.37;;
80115;SDS011;69423;47.608;19.366;2023-07-02T00:25:38;15.67;;;15.67;;
80115;SDS011;69423;47.608;19.366;2023-07-02T00:26:09;16.07;;;16.03;;
80115;SDS011;69423;47.608;19.366;2023-07-02T00:26:40;14.87;;;14.87;;
80115;SDS011;69423;47.608;19.366;2023-07-02T00:27:11;14.83;;;14.83;;
80115;SDS011;69423;47.608;19.366;2023-07-02T00:27:42;15.10;;;15.10;;
80115;SDS011;69423;47.608;19.366;2023-07-02T00:28:13;15.67;;;15.67;;
80115;SDS011;69423;47.608;19.366;2023-07-02T00:28:44;16.13;;;16.13;;
80115;SDS011;69423;47.608;19.366;2023-07-02T00:29:15;15.50;;;15.50;;
80115;SDS011;69423;47.608;19.366;2023-07-02T00:29:47;15.43;;;15.43;;
80115;SDS011;69423;47.608;19.366;2023-07-02T00:30:18;15.77;;;15.77;;
80115;SDS011;69423;47.608;19.366;2023-07-02T00:30:49;15.07;;;15.07;;
80115;SDS011;69423;47.608;19.366;2023-07-02T00:31:20;15.37;;;15.37;;
80115;SDS011;69423;47.608;19.366;2023-07-02T00:31:51;15.47;;;15.47;;
80115;SDS011;69423;47.608;19.366;2023-07-02T00:32:22;15.00;;;15.00;;
80115;SDS011;69423;47.608;19.366;2023-07-02T00:32:53;15.20;;;15.20;;
80115;SDS011;69423;47.608;19.366;2023-07-02T00:33:25;16.27;;;16.27;;
80115;SDS011;69423;47.608;19.366;2023-07-02T00:33:56;16.43;;;16.43;;
80115;SDS011;69423;47.608;19.366;2023-07-02T00:34:27;15.47;;;15.47;;
80115;SDS011;69423;47.608;19.366;2023-07-02T00:34:58;15.47;;;15.47;;
80115;SDS011;69423;47.608;19.366;2023-07-02T00:35:29;15.47;;;15.47;;
80115;SDS011;69423;47.608;19.366;2023-07-02T00:36:00;15.57;;;15.57;;
80115;SDS011;69423;47.608;19.366;2023-07-02T00:36:32;15.73;;;15.73;;
80115;SDS011;69423;47.608;19.366;2023-07-02T00:37:03;15.63;;;15.63;;
80115;SDS011;69423;47.608;19.366;2023-07-02T00:37:34;16.63;;;16.63;;
80115;SDS011;69423;47.608;19.366;2023-07-02T00:38:05;16.17;;;16.17;;
80115;SDS011;69423;47.608;19.366;2023-07-02T00:38:36;16.37;;;16.37;;
80115;SDS011;69423;47.608;19.366;2023-07-02T00:39:07;15.77;;;15.77;;
80115;SDS011;69423;47.608;19.366;2023-07-02T00:39:38;16.13;;;16.13;;
80115;SDS011;69423;47.608;19.366;2023-07-02T00:40:09;16.60;;;16.60;;
80115;SDS011;69423;47.608;19.366;2023-07-02T00:40:40;16.40;;;16.40;;
80115;SDS011;69423;47.608;19.366;2023-07-02T00:41:11;16.37;;;16.37;;
80115;SDS011;69423;47.608;19.366;2023-07-02T00:41:43;16.17;;;16.13;;
80115;SDS011;69423;47.608;19.366;2023-07-02T00:42:16;17.27;;;17.13;;
80115;SDS011;69423;47.608;19.366;2023-07-02T00:42:47;16.93;;;16.90;;
80115;SDS011;69423;47.608;19.366;2023-07-02T00:43:18;16.93;;;16.90;;
80115;SDS011;69423;47.608;19.366;2023-07-02T00:43:49;16.73;;;16.73;;
80115;SDS011;69423;47.608;19.366;2023-07-02T00:44:24;16.43;;;16.43;;
80115;SDS011;69423;47.608;19.366;2023-07-02T00:44:56;16.83;;;16.83;;
80115;SDS011;69423;47.608;19.366;2023-07-02T00:45:33;17.03;;;17.03;;
80115;SDS011;69423;47.608;19.366;2023-07-02T00:46:04;16.53;;;16.53;;
80115;SDS011;69423;47.608;19.366;2023-07-02T00:46:35;16.07;;;16.07;;
80115;SDS011;69423;47.608;19.366;2023-07-02T00:47:09;16.73;;;16.73;;
80115;SDS011;69423;47.608;19.366;2023-07-02T00:47:41;16.33;;;16.33;;
80115;SDS011;69423;47.608;19.366;2023-07-02T00:48:12;16.50;;;16.50;;
80115;SDS011;69423;47.608;19.366;2023-07-02T00:48:43;17.13;;;17.13;;
80115;SDS011;69423;47.608;19.366;2023-07-02T00:49:16;16.80;;;16.80;;
80115;SDS011;69423;47.608;19.366;2023-07-02T00:49:47;17.07;;;17.07;;
80115;SDS011;69423;47.608;19.366;2023-07-02T00:50:18;15.57;;;15.57;;
80115;SDS011;69423;47.608;19.366;2023-07-02T00:50:49;15.83;;;15.83;;
80115;SDS011;69423;47.608;19.366;2023-07-02T00:51:21;15.97;;;15.97;;
80115;SDS011;69423;47.608;19.366;2023-07-02T00:51:54;17.20;;;17.20;;
80115;SDS011;69423;47.608;19.366;2023-07-02T00:52:26;17.50;;;17.50;;
80115;SDS011;69423;47.608;19.366;2023-07-02T00:52:57;17.13;;;17.13;;
80115;SDS011;69423;47.608;19.366;2023-07-02T00:53:28;16.83;;;16.83;;
80115;SDS011;69423;47.608;19.366;2023-07-02T00:53:59;17.10;;;17.10;;
80115;SDS011;69423;47.608;19.366;2023-07-02T00:54:30;16.73;;;16.73;;
80115;SDS011;69423;47.608;19.366;2023-07-02T00:55:02;18.20;;;18.20;;
80115;SDS011;69423;47.608;19.366;2023-07-02T00:55:33;17.30;;;17.30;;
80115;SDS011;69423;47.608;19.366;2023-07-02T00:56:04;16.73;;;16.73;;
80115;SDS011;69423;47.608;19.366;2023-07-02T00:56:35;17.17;;;17.17;;
80115;SDS011;69423;47.608;19.366;2023-07-02T00:57:06;16.57;;;16.57;;
80115;SDS011;69423;47.608;19.366;2023-07-02T00:57:38;17.30;;;17.30;;
80115;SDS011;69423;47.608;19.366;2023-07-02T00:58:11;17.30;;;17.30;;
80115;SDS011;69423;47.608;19.366;2023-07-02T00:58:46;17.60;;;17.60;;
80115;SDS011;69423;47.608;19.366;2023-07-02T00:59:21;17.40;;;17.40;;
80115;SDS011;69423;47.608;19.366;2023-07-02T00:59:52;17.03;;;17.03;;
80115;SDS011;69423;47.608;19.366;2023-07-02T01:00:23;16.53;;;16.53;;
80115;SDS011;69423;47.608;19.366;2023-07-02T01:00:54;16.70;;;16.70;;
80115;SDS011;69423;47.608;19.366;2023-07-02T01:01:27;16.80;;;16.80;;
80115;SDS011;69423;47.608;19.366;2023-07-02T01:01:58;16.60;;;16.60;;
80115;SDS011;69423;47.608;19.366;2023-07-02T01:02:30;17.13;;;17.13;;
80115;SDS011;69423;47.608;19.366;2023-07-02T01:03:01;17.27;;;17.27;;
80115;SDS011;69423;47.608;19.366;2023-07-02T01:03:33;17.53;;;17.53;;
80115;SDS011;69423;47.608;19.366;2023-07-02T01:04:07;18.03;;;18.03;;
80115;SDS011;69423;47.608;19.366;2023-07-02T01:04:39;17.90;;;17.90;;
80115;SDS011;69423;47.608;19.366;2023-07-02T01:05:14;16.83;;;16.83;;
80115;SDS011;69423;47.608;19.366;2023-07-02T01:05:46;17.23;;;17.23;;
80115;SDS011;69423;47.608;19.366;2023-07-02T01:06:17;16.90;;;16.90;;
80115;SDS011;69423;47.608;19.366;2023-07-02T01:06:50;17.87;;;17.87;;
80115;SDS011;69423;47.608;19.366;2023-07-02T01:07:21;17.23;;;17.23;;
80115;SDS011;69423;47.608;19.366;2023-07-02T01:07:52;17.57;;;17.57;;
80115;SDS011;69423;47.608;19.366;2023-07-02T01:08:23;17.33;;;17.33;;
80115;SDS011;69423;47.608;19.366;2023-07-02T01:08:54;17.80;;;17.77;;
80115;SDS011;69423;47.608;19.366;2023-07-02T01:09:27;17.27;;;17.23;;
80115;SDS011;69423;47.608;19.366;2023-07-02T01:09:58;17.17;;;17.17;;
80115;SDS011;69423;47.608;19.366;2023-07-02T01:10:29;17.23;;;17.20;;
80115;SDS011;69423;47.608;19.366;2023-07-02T01:11:01;17.10;;;17.10;;
80115;SDS011;69423;47.608;19.366;2023-07-02T01:11:34;17.80;;;17.77;;
80115;SDS011;69423;47.608;19.366;2023-07-02T01:12:17;18.60;;;18.17;;
80115;SDS011;69423;47.608;19.366;2023-07-02T01:12:51;17.83;;;17.83;;
80115;SDS011;69423;47.608;19.366;2023-07-02T01:13:24;17.87;;;17.87;;
80115;SDS011;69423;47.608;19.366;2023-07-02T01:13:59;17.50;;;17.50;;
80115;SDS011;69423;47.608;19.366;2023-07-02T01:14:38;17.43;;;17.43;;
80115;SDS011;69423;47.608;19.366;2023-07-02T01:15:14;18.37;;;18.30;;
80115;SDS011;69423;47.608;19.366;2023-07-02T01:15:45;18.30;;;18.27;;
80115;SDS011;69423;47.608;19.366;2023-07-02T01:16:17;17.77;;;17.77;;
80115;SDS011;69423;47.608;19.366;2023-07-02T01:16:48;18.90;;;18.80;;
80115;SDS011;69423;47.608;19.366;2023-07-02T01:17:20;19.50;;;19.07;;
80115;SDS011;69423;47.608;19.366;2023-07-02T01:17:54;18.43;;;17.93;;
80115;SDS011;69423;47.608;19.366;2023-07-02T01:18:26;18.43;;;18.30;;
80115;SDS011;69423;47.608;19.366;2023-07-02T01:18:57;19.10;;;18.87;;
80115;SDS011;69423;47.608;19.366;2023-07-02T01:19:52;19.07;;;19.03;;
80115;SDS011;69423;47.608;19.366;2023-07-02T01:20:29;19.13;;;19.13;;
80115;SDS011;69423;47.608;19.366;2023-07-02T01:21:01;18.33;;;18.33;;
80115;SDS011;69423;47.608;19.366;2023-07-02T01:21:36;18.37;;;18.37;;
80115;SDS011;69423;47.608;19.366;2023-07-02T01:22:07;19.17;;;18.97;;
80115;SDS011;69423;47.608;19.366;2023-07-02T01:22:39;20.23;;;19.67;;
80115;SDS011;69423;47.608;19.366;2023-07-02T01:23:11;19.33;;;19.30;;
80115;SDS011;69423;47.608;19.366;2023-07-02T01:23:42;19.40;;;19.23;;
80115;SDS011;69423;47.608;19.366;2023-07-02T01:24:14;19.13;;;19.03;;
80115;SDS011;69423;47.608;19.366;2023-07-02T01:24:46;18.77;;;18.77;;
80115;SDS011;69423;47.608;19.366;2023-07-02T01:25:18;18.10;;;18.00;;
80115;SDS011;69423;47.608;19.366;2023-07-02T01:25:52;20.50;;;19.70;;
80115;SDS011;69423;47.608;19.366;2023-07-02T01:26:23;19.43;;;19.00;;
80115;SDS011;69423;47.608;19.366;2023-07-02T01:26:54;18.47;;;18.47;;
80115;SDS011;69423;47.608;19.366;2023-07-02T01:27:29;18.63;;;18.43;;
80115;SDS011;69423;47.608;19.366;2023-07-02T01:28:01;18.80;;;18.27;;
80115;SDS011;69423;47.608;19.366;2023-07-02T01:28:35;18.13;;;18.10;;
80115;SDS011;69423;47.608;19.366;2023-07-02T01:29:15;19.37;;;18.93;;
80115;SDS011;69423;47.608;19.366;2023-07-02T01:29:51;18.10;;;18.00;;
80115;SDS011;69423;47.608;19.366;2023-07-02T01:30:22;18.00;;;18.00;;
80115;SDS011;69423;47.608;19.366;2023-07-02T01:30:53;18.17;;;18.13;;
80115;SDS011;69423;47.608;19.366;2023-07-02T01:31:24;18.43;;;18.43;;
80115;SDS011;69423;47.608;19.366;2023-07-02T01:31:56;18.63;;;18.63;;
80115;SDS011;69423;47.608;19.366;2023-07-02T01:32:27;18.20;;;18.20;;
80115;SDS011;69423;47.608;19.366;2023-07-02T01:32:58;18.40;;;18.40;;
80115;SDS011;69423;47.608;19.366;2023-07-02T01:33:29;19.13;;;19.13;;
80115;SDS011;69423;47.608;19.366;2023-07-02T01:34:00;18.60;;;18.53;;
80115;SDS011;69423;47.608;19.366;2023-07-02T01:34:33;18.53;;;18.23;;
80115;SDS011;69423;47.608;19.366;2023-07-02T01:35:05;19.47;;;19.03;;
80115;SDS011;69423;47.608;19.366;2023-07-02T01:35:36;20.20;;;19.63;;
80115;SDS011;69423;47.608;19.366;2023-07-02T01:36:07;20.83;;;19.90;;
80115;SDS011;69423;47.608;19.366;2023-07-02T01:36:38;19.80;;;19.13;;
80115;SDS011;69423;47.608;19.366;2023-07-02T01:37:10;18.60;;;18.53;;
80115;SDS011;69423;47.608;19.366;2023-07-02T01:37:41;20.33;;;19.63;;
80115;SDS011;69423;47.608;19.366;2023-07-02T01:38:12;19.83;;;19.53;;
80115;SDS011;69423;47.608;19.366;2023-07-02T01:38:43;19.07;;;19.07;;
80115;SDS011;69423;47.608;19.366;2023-07-02T01:39:14;18.70;;;18.70;;
80115;SDS011;69423;47.608;19.366;2023-07-02T01:39:46;19.90;;;19.77;;
80115;SDS011;69423;47.608;19.366;2023-07-02T01:40:17;19.37;;;19.27;;
80115;SDS011;69423;47.608;19.366;2023-07-02T01:40:49;20.13;;;20.03;;
80115;SDS011;69423;47.608;19.366;2023-07-02T01:41:20;19.30;;;19.27;;
80115;SDS011;69423;47.608;19.366;2023-07-02T01:41:51;19.60;;;19.03;;
80115;SDS011;69423;47.608;19.366;2023-07-02T01:42:23;20.43;;;19.47;;
80115;SDS011;69423;47.608;19.366;2023-07-02T01:42:54;19.80;;;19.47;;
80115;SDS011;69423;47.608;19.366;2023-07-02T01:43:25;19.67;;;19.23;;
80115;SDS011;69423;47.608;19.366;2023-07-02T01:43:56;21.23;;;20.30;;
80115;SDS011;69423;47.608;19.366;2023-07-02T01:44:28;20.10;;;19.40;;
80115;SDS011;69423;47.608;19.366;2023-07-02T01:44:59;18.80;;;18.80;;
80115;SDS011;69423;47.608;19.366;2023-07-02T01:45:30;20.07;;;19.73;;
80115;SDS011;69423;47.608;19.366;2023-07-02T01:46:01;20.33;;;19.77;;
80115;SDS011;69423;47.608;19.366;2023-07-02T01:46:32;19.80;;;19.53;;
80115;SDS011;69423;47.608;19.366;2023-07-02T01:47:03;19.33;;;19.23;;
80115;SDS011;69423;47.608;19.366;2023-07-02T01:47:34;19.47;;;19.30;;
80115;SDS011;69423;47.608;19.366;2023-07-02T01:48:05;19.70;;;19.63;;
80115;SDS011;69423;47.608;19.366;2023-07-02T01:48:36;19.00;;;19.00;;
80115;SDS011;69423;47.608;19.366;2023-07-02T01:49:08;19.87;;;19.73;;
80115;SDS011;69423;47.608;19.366;2023-07-02T01:49:39;20.20;;;20.20;;
80115;SDS011;69423;47.608;19.366;2023-07-02T01:50:10;19.60;;;19.60;;
80115;SDS011;69423;47.608;19.366;2023-07-02T01:50:41;20.00;;;19.93;;
80115;SDS011;69423;47.608;19.366;2023-07-02T01:51:12;19.03;;;18.77;;
80115;SDS011;69423;47.608;19.366;2023-07-02T01:51:45;18.20;;;18.17;;
80115;SDS011;69423;47.608;19.366;2023-07-02T01:52:22;18.67;;;18.67;;
80115;SDS011;69423;47.608;19.366;2023-07-02T01:52:53;18.77;;;18.77;;
80115;SDS011;69423;47.608;19.366;2023-07-02T01:53:24;19.43;;;19.33;;
80115;SDS011;69423;47.608;19.366;2023-07-02T01:53:55;20.83;;;20.50;;
80115;SDS011;69423;47.608;19.366;2023-07-02T01:54:27;21.37;;;20.50;;
80115;SDS011;69423;47.608;19.366;2023-07-02T01:54:59;20.23;;;19.60;;
80115;SDS011;69423;47.608;19.366;2023-07-02T01:55:31;19.43;;;19.43;;
80115;SDS011;69423;47.608;19.366;2023-07-02T01:56:02;19.67;;;19.63;;
80115;SDS011;69423;47.608;19.366;2023-07-02T01:56:33;19.67;;;19.23;;
80115;SDS011;69423;47.608;19.366;2023-07-02T01:57:04;19.87;;;19.07;;
80115;SDS011;69423;47.608;19.366;2023-07-02T01:57:35;19.60;;;18.93;;
80115;SDS011;69423;47.608;19.366;2023-07-02T01:58:06;19.80;;;19.50;;
80115;SDS011;69423;47.608;19.366;2023-07-02T01:58:37;19.57;;;19.13;;
80115;SDS011;69423;47.608;19.366;2023-07-02T01:59:09;18.97;;;18.90;;
80115;SDS011;69423;47.608;19.366;2023-07-02T01:59:40;20.17;;;19.83;;
80115;SDS011;69423;47.608;19.366;2023-07-02T02:00:11;19.33;;;19.33;;
80115;SDS011;69423;47.608;19.366;2023-07-02T02:00:43;19.40;;;19.40;;
80115;SDS011;69423;47.608;19.366;2023-07-02T02:01:14;19.07;;;19.07;;
80115;SDS011;69423;47.608;19.366;2023-07-02T02:01:45;20.70;;;20.37;;
80115;SDS011;69423;47.608;19.366;2023-07-02T02:02:16;19.40;;;19.30;;
80115;SDS011;69423;47.608;19.366;2023-07-02T02:02:47;18.93;;;18.87;;
80115;SDS011;69423;47.608;19.366;2023-07-02T02:03:18;19.10;;;19.00;;
80115;SDS011;69423;47.608;19.366;2023-07-02T02:03:49;18.73;;;18.73;;
80115;SDS011;69423;47.608;19.366;2023-07-02T02:04:20;19.50;;;19.50;;
80115;SDS011;69423;47.608;19.366;2023-07-02T02:04:51;19.20;;;19.20;;
80115;SDS011;69423;47.608;19.366;2023-07-02T02:05:22;20.40;;;20.10;;
80115;SDS011;69423;47.608;19.366;2023-07-02T02:05:53;21.60;;;20.77;;
80115;SDS011;69423;47.608;19.366;2023-07-02T02:06:24;24.50;;;23.80;;
80115;SDS011;69423;47.608;19.366;2023-07-02T02:06:56;21.20;;;20.97;;
80115;SDS011;69423;47.608;19.366;2023-07-02T02:07:27;21.13;;;20.90;;
80115;SDS011;69423;47.608;19.366;2023-07-02T02:07:58;21.90;;;21.23;;
80115;SDS011;69423;47.608;19.366;2023-07-02T02:08:29;22.67;;;22.13;;
80115;SDS011;69423;47.608;19.366;2023-07-02T02:09:00;23.90;;;23.37;;
80115;SDS011;69423;47.608;19.366;2023-07-02T02:09:31;21.63;;;21.17;;
80115;SDS011;69423;47.608;19.366;2023-07-02T02:10:03;20.57;;;20.27;;
80115;SDS011;69423;47.608;19.366;2023-07-02T02:10:34;20.70;;;20.63;;
80115;SDS011;69423;47.608;19.366;2023-07-02T02:11:06;19.90;;;19.90;;
80115;SDS011;69423;47.608;19.366;2023-07-02T02:11:43;21.57;;;21.37;;
80115;SDS011;69423;47.608;19.366;2023-07-02T02:12:16;22.47;;;21.73;;
80115;SDS011;69423;47.608;19.366;2023-07-02T02:12:47;21.67;;;21.20;;
80115;SDS011;69423;47.608;19.366;2023-07-02T02:13:18;20.50;;;20.50;;
80115;SDS011;69423;47.608;19.366;2023-07-02T02:13:49;20.90;;;20.77;;
80115;SDS011;69423;47.608;19.366;2023-07-02T02:14:20;20.50;;;20.27;;
80115;SDS011;69423;47.608;19.366;2023-07-02T02:14:52;20.17;;;20.00;;
80115;SDS011;69423;47.608;19.366;2023-07-02T02:15:23;21.07;;;20.43;;
80115;SDS011;69423;47.608;19.366;2023-07-02T02:15:54;22.40;;;21.50;;
80115;SDS011;69423;47.608;19.366;2023-07-02T02:16:25;22.73;;;21.83;;
80115;SDS011;69423;47.608;19.366;2023-07-02T02:16:56;20.97;;;20.53;;
80115;SDS011;69423;47.608;19.366;2023-07-02T02:17:27;21.60;;;21.00;;
80115;SDS011;69423;47.608;19.366;2023-07-02T02:17:59;22.40;;;21.53;;
80115;SDS011;69423;47.608;19.366;2023-07-02T02:18:30;22.03;;;21.03;;
80115;SDS011;69423;47.608;19.366;2023-07-02T02:19:01;20.50;;;19.90;;
80115;SDS011;69423;47.608;19.366;2023-07-02T02:19:32;21.57;;;21.00;;
80115;SDS011;69423;47.608;19.366;2023-07-02T02:20:03;21.83;;;21.10;;
80115;SDS011;69423;47.608;19.366;2023-07-02T02:20:36;21.40;;;20.80;;
80115;SDS011;69423;47.608;19.366;2023-07-02T02:21:07;22.13;;;21.30;;
80115;SDS011;69423;47.608;19.366;2023-07-02T02:21:38;21.03;;;20.80;;
80115;SDS011;69423;47.608;19.366;2023-07-02T02:22:09;21.57;;;21.23;;
80115;SDS011;69423;47.608;19.366;2023-07-02T02:22:40;21.17;;;20.63;;
80115;SDS011;69423;47.608;19.366;2023-07-02T02:23:11;20.67;;;20.67;;
80115;SDS011;69423;47.608;19.366;2023-07-02T02:23:42;20.93;;;20.47;;
80115;SDS011;69423;47.608;19.366;2023-07-02T02:24:14;20.87;;;20.57;;
80115;SDS011;69423;47.608;19.366;2023-07-02T02:24:45;20.87;;;20.67;;
80115;SDS011;69423;47.608;19.366;2023-07-02T02:25:16;21.23;;;20.90;;
80115;SDS011;69423;47.608;19.366;2023-07-02T02:25:48;21.47;;;20.87;;
80115;SDS011;69423;47.608;19.366;2023-07-02T02:26:19;21.97;;;21.23;;
80115;SDS011;69423;47.608;19.366;2023-07-02T02:26:52;21.77;;;21.37;;
80115;SDS011;69423;47.608;19.366;2023-07-02T02:27:23;21.47;;;20.80;;
80115;SDS011;69423;47.608;19.366;2023-07-02T02:27:54;20.83;;;19.97;;
80115;SDS011;69423;47.608;19.366;2023-07-02T02:28:25;22.23;;;21.33;;
80115;SDS011;69423;47.608;19.366;2023-07-02T02:28:56;21.83;;;21.13;;
80115;SDS011;69423;47.608;19.366;2023-07-02T02:29:27;21.77;;;21.20;;
80115;SDS011;69423;47.608;19.366;2023-07-02T02:29:58;22.53;;;21.80;;
80115;SDS011;69423;47.608;19.366;2023-07-02T02:30:29;21.37;;;21.00;;
80115;SDS011;69423;47.608;19.366;2023-07-02T02:31:00;20.37;;;20.37;;
80115;SDS011;69423;47.608;19.366;2023-07-02T02:31:31;20.60;;;20.57;;
80115;SDS011;69423;47.608;19.366;2023-07-02T02:32:02;20.93;;;20.67;;
80115;SDS011;69423;47.608;19.366;2023-07-02T02:32:34;21.40;;;21.03;;
80115;SDS011;69423;47.608;19.366;2023-07-02T02:33:05;20.83;;;20.53;;
80115;SDS011;69423;47.608;19.366;2023-07-02T02:33:36;19.80;;;19.53;;
80115;SDS011;69423;47.608;19.366;2023-07-02T02:34:07;21.40;;;20.53;;
80115;SDS011;69423;47.608;19.366;2023-07-02T02:34:38;22.57;;;21.43;;
80115;SDS011;69423;47.608;19.366;2023-07-02T02:35:09;22.30;;;21.30;;
80115;SDS011;69423;47.608;19.366;2023-07-02T02:35:40;22.23;;;21.47;;
80115;SDS011;69423;47.608;19.366;2023-07-02T02:36:11;20.97;;;20.73;;
80115;SDS011;69423;47.608;19.366;2023-07-02T02:36:42;21.87;;;21.07;;
80115;SDS011;69423;47.608;19.366;2023-07-02T02:37:14;21.73;;;20.60;;
80115;SDS011;69423;47.608;19.366;2023-07-02T02:37:45;22.03;;;20.73;;
80115;SDS011;69423;47.608;19.366;2023-07-02T02:38:16;22.03;;;20.93;;
80115;SDS011;69423;47.608;19.366;2023-07-02T02:38:47;22.07;;;21.20;;
80115;SDS011;69423;47.608;19.366;2023-07-02T02:39:18;21.97;;;21.20;;
80115;SDS011;69423;47.608;19.366;2023-07-02T02:39:49;21.53;;;20.77;;
80115;SDS011;69423;47.608;19.366;2023-07-02T02:40:21;20.80;;;20.13;;
80115;SDS011;69423;47.608;19.366;2023-07-02T02:40:52;20.17;;;19.77;;
80115;SDS011;69423;47.608;19.366;2023-07-02T02:41:23;21.37;;;20.57;;
80115;SDS011;69423;47.608;19.366;2023-07-02T02:41:54;22.03;;;21.17;;
80115;SDS011;69423;47.608;19.366;2023-07-02T02:42:25;22.40;;;21.50;;
80115;SDS011;69423;47.608;19.366;2023-07-02T02:42:56;20.83;;;20.10;;
80115;SDS011;69423;47.608;19.366;2023-07-02T02:43:27;21.57;;;20.73;;
80115;SDS011;69423;47.608;19.366;2023-07-02T02:43:58;22.07;;;21.57;;
80115;SDS011;69423;47.608;19.366;2023-07-02T02:44:29;20.97;;;20.43;;
80115;SDS011;69423;47.608;19.366;2023-07-02T02:45:03;21.63;;;20.73;;
80115;SDS011;69423;47.608;19.366;2023-07-02T02:45:34;20.77;;;20.23;;
80115;SDS011;69423;47.608;19.366;2023-07-02T02:46:05;20.80;;;19.93;;
80115;SDS011;69423;47.608;19.366;2023-07-02T02:46:36;20.20;;;19.60;;
80115;SDS011;69423;47.608;19.366;2023-07-02T02:47:07;21.10;;;20.30;;
80115;SDS011;69423;47.608;19.366;2023-07-02T02:47:38;21.43;;;20.47;;
80115;SDS011;69423;47.608;19.366;2023-07-02T02:48:09;21.80;;;20.83;;
80115;SDS011;69423;47.608;19.366;2023-07-02T02:48:40;22.30;;;21.23;;
80115;SDS011;69423;47.608;19.366;2023-07-02T02:49:11;21.93;;;20.87;;
80115;SDS011;69423;47.608;19.366;2023-07-02T02:49:43;21.53;;;20.53;;
80115;SDS011;69423;47.608;19.366;2023-07-02T02:50:14;21.33;;;20.47;;
80115;SDS011;69423;47.608;19.366;2023-07-02T02:50:45;21.93;;;21.10;;
80115;SDS011;69423;47.608;19.366;2023-07-02T02:51:17;20.13;;;19.77;;
80115;SDS011;69423;47.608;19.366;2023-07-02T02:51:48;19.93;;;19.70;;
80115;SDS011;69423;47.608;19.366;2023-07-02T02:52:19;20.30;;;20.07;;
80115;SDS011;69423;47.608;19.366;2023-07-02T02:52:50;20.97;;;20.20;;
80115;SDS011;69423;47.608;19.366;2023-07-02T02:53:22;20.47;;;20.10;;
80115;SDS011;69423;47.608;19.366;2023-07-02T02:53:53;21.10;;;20.40;;
80115;SDS011;69423;47.608;19.366;2023-07-02T02:54:24;21.40;;;20.60;;
80115;SDS011;69423;47.608;19.366;2023-07-02T02:54:55;20.60;;;19.87;;
80115;SDS011;69423;47.608;19.366;2023-07-02T02:55:26;21.10;;;20.30;;
80115;SDS011;69423;47.608;19.366;2023-07-02T02:55:58;20.47;;;19.90;;
80115;SDS011;69423;47.608;19.366;2023-07-02T02:56:29;19.97;;;19.53;;
80115;SDS011;69423;47.608;19.366;2023-07-02T02:57:00;19.87;;;19.27;;
80115;SDS011;69423;47.608;19.366;2023-07-02T02:57:31;19.23;;;18.67;;
80115;SDS011;69423;47.608;19.366;2023-07-02T02:58:03;20.43;;;19.67;;
80115;SDS011;69423;47.608;19.366;2023-07-02T02:58:34;19.57;;;18.83;;
80115;SDS011;69423;47.608;19.366;2023-07-02T02:59:05;19.83;;;19.03;;
80115;SDS011;69423;47.608;19.366;2023-07-02T02:59:36;20.60;;;19.70;;
80115;SDS011;69423;47.608;19.366;2023-07-02T03:00:07;19.93;;;19.07;;
80115;SDS011;69423;47.608;19.366;2023-07-02T03:00:39;19.23;;;18.97;;
80115;SDS011;69423;47.608;19.366;2023-07-02T03:01:13;19.03;;;18.90;;
80115;SDS011;69423;47.608;19.366;2023-07-02T03:01:45;19.10;;;18.50;;
80115;SDS011;69423;47.608;19.366;2023-07-02T03:02:17;19.20;;;18.93;;
80115;SDS011;69423;47.608;19.366;2023-07-02T03:02:48;18.67;;;18.43;;